NCAR-RAP Real-Time Weather Data

Output produced by METARs form (06 May 2021  16:02 UTC)
found at http://weather.rap.ucar.edu/surface/
 
KMDT 061456Z 36009KT 10SM FEW045 BKN200 14/01 A3004 RMK AO2 SLP175 6//// T01390011 50001 PNO $
KMDT 061356Z 01011KT 10SM FEW045 13/00 A3005 RMK AO2 SLP177 T01330000 PNO $
KMDT 061256Z 34009KT 10SM BKN042 12/01 A3004 RMK AO2 SLP175 T01220011 PNO $
KMDT 061156Z 34009KT 10SM FEW040 11/02 A3004 RMK AO2 SLP174 6//// 7//// T01110017 10117 20094 51021 PNO $
KMDT 061056Z 32009KT 10SM SCT041 10/02 A3003 RMK AO2 SLP171 T01000017 PNO $
KMDT 060956Z 33008KT 10SM BKN042 10/02 A3000 RMK AO2 SLP160 T01000017 PNO $
KMDT 060856Z 30010KT 10SM FEW050 09/02 A2998 RMK AO2 SLP152 6//// T00940017 53005 PNO $
KMDT 060756Z 30013KT 10SM FEW050 10/01 A2997 RMK AO2 SLP149 T01000011 PNO $
KMDT 060656Z 30014KT 10SM FEW050 11/02 A2996 RMK AO2 SLP144 T01110017 PNO $
KMDT 060556Z 30014KT 10SM SCT055 12/02 A2996 RMK AO2 SLP147 6//// T01170022 10167 20117 50009 PNO $
KMDT 060456Z 32018G22KT 10SM BKN055 12/00 A2997 RMK AO2 SLP147 T01220000 402220122 PNO $
KMDT 060356Z 31014KT 10SM BKN055 13/02 A2995 RMK AO2 SLP141 T01330017 PNO $
KMDT 060256Z 31016G24KT 10SM BKN055 14/02 A2994 RMK AO2 SLP137 6//// T01390017 51029 PNO $
KMDT 060156Z 31012KT 10SM BKN060 15/04 A2992 RMK AO2 SLP131 T01500039 PNO $
KMDT 060056Z 31013G21KT 10SM FEW035 SCT060 16/05 A2989 RMK AO2 SLP121 T01560050 PNO $